LIME/BGY METAR and TAF weather

Enter ICAO airport designator
Station Type Date Time Source
LIME METAR 2019/12/06 08:50 UTC NOAA

LIME 060850Z 36004KT 9999 SCT075 03/00 Q1025 NOSIG


Station Type Date Time Source
LIME Decoded METAR 2019/12/06 08:50 UTC NOAA

Bergamo / Orio Al Serio, Italy (LIME) 45-40N 009-42E 237M
Dec 06, 2019 - 03:50 AM EST / 2019.12.06 0850 UTC
Wind: from the N (360 degrees) at 5 MPH (4 KT):0
Visibility: greater than 7 mile(s):0
Sky conditions: partly cloudy
Temperature: 37 F (3 C)
Dew Point: 32 F (0 C)
Relative Humidity: 80%
Pressure (altimeter): 30.27 in. Hg (1025 hPa)
ob: LIME 060850Z 36004KT 9999 SCT075 03/00 Q1025 NOSIG
cycle: 9

Station Type Date Time Source
LIME TAF 2019/12/06 06:21 UTC NOAA

TAF LIME 060500Z 0606/0706 VRB05KT CAVOK

Example: see airport list